Main page
METAR-TAF:

METAR-TAF

Airports :

Gabès – Matmata International Airport

Gabès, Tunisia

latitude: 33-53N, longitude: 010-06E, elevation: 4 m

Current weather observation

The report was made 58 minutes ago, at 07:00 UTC
Wind 7 kt from the Southwest
Temperature 2°C
Humidity 64%
Pressure 1029 hPa
Visibility 10 km or more
no clouds below 1500 m and no cumulonimbus

METAR: DTTG 250700Z 23007KT CAVOK 02/M04 Q1029 NOSIG

Time: 08:58 (07:58 UTC)

Forecast

The report was made 1 hour and 58 minutes ago, at 06:00 UTC
Forecast valid from 25 at 07 UTC to 25 at 16 UTC
Wind 7 kt from the Southwest
Visibility 10 km or more
no clouds below 1500 m and no cumulonimbus
Becoming
from 25 at 13 UTC to 25 at 15 UTC
Wind 10 kt from the East/Northeast

TAF: DTTG 250600Z 2507/2516 23007KT CAVOK BECMG 2513/2515 06010KT

Weather observations and forecasts of more than 4000 airports (METAR and TAF reports).

The available stations are represented by yellow and red dots on the map.

Hover mouse over dot to see the name of the station.

Then click to see weather observations and forecasts.

To change the map : click on the green buttons with a black cross to zoom in, on the green button with a dash to zoom out, or on the green arrows for adjacent maps.


METAR-TAF: